createdAt,value
2022-09-12T00:01:05.817Z,3.17
2022-09-12T00:03:55.121Z,3.17
2022-09-12T00:06:48.387Z,3.40
2022-09-12T00:09:37.050Z,3.40
2022-09-12T00:12:26.304Z,3.85
2022-09-12T00:15:14.973Z,3.22
2022-09-12T00:18:03.501Z,3.25
2022-09-12T00:20:52.129Z,3.22
2022-09-12T00:23:42.001Z,3.17
2022-09-12T00:26:30.820Z,3.35
2022-09-12T00:29:21.486Z,3.33
2022-09-12T00:32:09.984Z,3.53
2022-09-12T00:34:58.592Z,3.50
2022-09-12T00:37:47.071Z,3.25
2022-09-12T00:40:36.922Z,3.72
2022-09-12T00:43:39.983Z,3.13
2022-09-12T00:46:37.105Z,3.42
2022-09-12T00:49:29.287Z,3.35
2022-09-12T00:52:23.431Z,3.20
2022-09-12T00:55:16.199Z,3.50
2022-09-12T00:58:10.625Z,3.42
2022-09-12T01:01:00.411Z,2.90
2022-09-12T01:03:49.375Z,3.10
2022-09-12T01:06:43.298Z,3.58
2022-09-12T01:09:31.786Z,3.30
2022-09-12T01:12:20.845Z,3.10
2022-09-12T01:15:11.790Z,3.28
2022-09-12T01:18:09.935Z,3.13
2022-09-12T01:21:11.608Z,3.10
2022-09-12T01:24:42.785Z,3.40
2022-09-12T01:27:49.934Z,3.20
2022-09-12T01:30:48.262Z,3.30
2022-09-12T01:33:51.484Z,3.58
2022-09-12T01:36:46.046Z,3.47
2022-09-12T01:39:44.635Z,3.28
2022-09-12T01:42:38.662Z,3.50
2022-09-12T01:45:33.039Z,3.47
2022-09-12T01:48:27.765Z,3.10
2022-09-12T01:51:22.762Z,3.33
2022-09-12T01:54:13.820Z,3.50
2022-09-12T01:57:09.612Z,3.25
2022-09-12T02:00:03.734Z,3.65
2022-09-12T02:03:06.243Z,3.53
2022-09-12T02:06:00.989Z,3.17
2022-09-12T02:08:53.290Z,2.85
2022-09-12T02:11:45.232Z,3.58
2022-09-12T02:14:38.495Z,3.20
2022-09-12T02:17:27.976Z,3.10
2022-09-12T02:20:46.528Z,3.42
2022-09-12T02:23:34.257Z,3.00
2022-09-12T02:26:27.113Z,3.30
2022-09-12T02:29:19.033Z,3.25
2022-09-12T02:32:17.345Z,3.83
2022-09-12T02:35:12.221Z,3.10
2022-09-12T02:38:07.651Z,3.40
2022-09-12T02:40:58.009Z,3.65
2022-09-12T02:43:47.145Z,3.13
2022-09-12T02:46:44.795Z,3.28
2022-09-12T02:49:33.321Z,3.72
2022-09-12T02:52:22.297Z,3.30
2022-09-12T02:55:12.494Z,3.22
2022-09-12T02:58:04.828Z,3.15
2022-09-12T03:01:01.349Z,3.10
2022-09-12T03:04:03.766Z,3.30
2022-09-12T03:07:02.824Z,3.22
2022-09-12T03:10:00.355Z,3.70
2022-09-12T03:13:01.847Z,3.22
2022-09-12T03:16:01.075Z,3.30
2022-09-12T03:19:03.184Z,3.42
2022-09-12T03:22:03.404Z,3.20
2022-09-12T03:24:58.084Z,3.40
2022-09-12T03:27:50.639Z,3.58
2022-09-12T03:30:40.837Z,3.70
2022-09-12T03:33:30.813Z,3.90
2022-09-12T03:36:23.283Z,3.80
2022-09-12T03:39:11.761Z,3.60
2022-09-12T03:42:00.263Z,4.00
2022-09-12T03:44:49.013Z,3.60
2022-09-12T03:47:38.303Z,3.67
2022-09-12T03:50:28.224Z,4.10
2022-09-12T03:53:17.514Z,4.43
2022-09-12T03:56:10.127Z,4.03
2022-09-12T03:58:58.529Z,4.25
2022-09-12T04:01:47.027Z,4.57
2022-09-12T04:04:36.781Z,4.60
2022-09-12T04:07:26.885Z,5.00
2022-09-12T04:10:16.279Z,4.47
2022-09-12T04:13:04.926Z,4.70
2022-09-12T04:15:59.689Z,4.80
2022-09-12T04:18:48.425Z,5.00
2022-09-12T04:21:37.429Z,4.90
2022-09-12T04:24:27.197Z,5.22
2022-09-12T04:27:15.623Z,5.00
2022-09-12T04:30:04.899Z,5.35
2022-09-12T04:32:53.403Z,5.07
2022-09-12T04:35:43.031Z,4.85
2022-09-12T04:38:31.532Z,4.80
2022-09-12T04:41:23.162Z,5.57
2022-09-12T04:44:13.788Z,5.18
2022-09-12T04:47:03.396Z,5.13
2022-09-12T04:49:52.552Z,5.30
2022-09-12T04:52:41.019Z,5.50
2022-09-12T04:55:33.437Z,5.30
2022-09-12T04:58:23.285Z,5.53
2022-09-12T05:01:13.404Z,5.22
2022-09-12T05:04:02.259Z,4.80
2022-09-12T05:06:50.894Z,5.70
2022-09-12T05:09:39.519Z,5.40
2022-09-12T05:12:28.899Z,5.80
2022-09-12T05:15:19.129Z,5.57
2022-09-12T05:18:07.678Z,6.00
2022-09-12T05:20:56.450Z,5.72
2022-09-12T05:23:45.685Z,5.90
2022-09-12T05:26:34.296Z,6.07
2022-09-12T05:29:22.722Z,5.95
2022-09-12T05:32:13.702Z,6.10
2022-09-12T05:35:02.256Z,6.25
2022-09-12T05:37:50.845Z,7.30
2022-09-12T05:40:39.582Z,6.28
2022-09-12T05:43:28.394Z,6.32
2022-09-12T05:46:18.808Z,5.65
2022-09-12T05:49:10.327Z,5.63
2022-09-12T05:51:58.911Z,5.68
2022-09-12T05:54:47.976Z,6.05
2022-09-12T05:57:36.573Z,5.45
2022-09-12T06:00:25.550Z,5.50
2022-09-12T06:03:14.705Z,5.78
2022-09-12T06:06:06.455Z,5.50
2022-09-12T06:08:57.620Z,5.60
2022-09-12T06:11:47.065Z,6.63
2022-09-12T06:14:35.628Z,12.40
2022-09-12T06:17:24.261Z,11.48
2022-09-12T06:20:12.994Z,7.35
2022-09-12T06:23:02.881Z,5.53
2022-09-12T06:25:52.146Z,5.93
2022-09-12T06:28:43.029Z,6.03
2022-09-12T06:31:33.637Z,5.15
2022-09-12T06:34:22.155Z,5.53
2022-09-12T06:37:10.698Z,5.60
2022-09-12T06:40:01.938Z,5.88
2022-09-12T06:42:50.774Z,5.50
2022-09-12T06:45:54.165Z,5.78
2022-09-12T06:48:42.974Z,5.80
2022-09-12T06:51:31.640Z,5.50
2022-09-12T06:54:20.307Z,5.95
2022-09-12T06:57:10.320Z,5.63
2022-09-12T06:59:59.100Z,5.97
2022-09-12T07:02:47.601Z,5.80
2022-09-12T07:05:37.532Z,5.57
2022-09-12T07:08:26.078Z,6.20
2022-09-12T07:11:16.475Z,5.50
2022-09-12T07:14:13.010Z,5.65
2022-09-12T07:17:01.527Z,5.70
2022-09-12T07:19:50.294Z,5.75
2022-09-12T07:22:38.809Z,5.85
2022-09-12T07:25:27.498Z,5.57
2022-09-12T07:28:16.496Z,5.70
2022-09-12T07:31:11.598Z,5.97
2022-09-12T07:34:00.228Z,5.43
2022-09-12T07:36:48.818Z,5.32
2022-09-12T07:39:37.916Z,5.57
2022-09-12T07:42:26.444Z,6.18
2022-09-12T07:45:15.577Z,5.25
2022-09-12T07:48:05.874Z,6.25
2022-09-12T07:51:00.262Z,6.15
2022-09-12T07:53:49.216Z,6.00
2022-09-12T07:56:39.392Z,5.75
2022-09-12T07:59:50.809Z,13.15
2022-09-12T08:02:37.148Z,5.50
2022-09-12T08:05:26.991Z,5.78
2022-09-12T08:08:15.478Z,5.80
2022-09-12T08:11:06.882Z,5.68
2022-09-12T08:13:57.385Z,5.80
2022-09-12T08:16:46.136Z,6.20
2022-09-12T08:19:34.698Z,6.03
2022-09-12T08:22:25.956Z,5.78
2022-09-12T08:25:14.382Z,5.78
2022-09-12T08:28:03.284Z,5.70
2022-09-12T08:30:51.818Z,5.35
2022-09-12T08:33:40.649Z,5.35
2022-09-12T08:36:29.728Z,5.50
2022-09-12T08:39:19.625Z,5.10
2022-09-12T08:45:18.553Z,5.03
2022-09-12T08:48:10.216Z,5.35
2022-09-12T08:50:59.615Z,5.78
2022-09-12T08:53:50.733Z,5.43
2022-09-12T08:56:40.841Z,5.15
2022-09-12T08:59:39.281Z,4.97
2022-09-12T09:02:47.371Z,5.43
2022-09-12T09:05:47.285Z,5.38
2022-09-12T09:08:47.934Z,4.80
2022-09-12T09:11:56.064Z,5.55
2022-09-12T09:15:01.282Z,5.40
2022-09-12T09:17:53.605Z,5.18
2022-09-12T09:20:49.644Z,5.60
2022-09-12T09:23:42.716Z,5.25
2022-09-12T09:26:40.727Z,5.70
2022-09-12T09:29:36.920Z,5.55
2022-09-12T09:32:29.627Z,4.95
2022-09-12T09:35:21.981Z,5.38
2022-09-12T09:38:24.027Z,5.32
2022-09-12T09:41:31.320Z,5.28
2022-09-12T09:44:20.017Z,5.03
2022-09-12T09:47:13.619Z,4.88
2022-09-12T09:50:02.072Z,5.03
2022-09-12T09:52:53.338Z,4.60
2022-09-12T09:55:44.246Z,6.00
2022-09-12T09:58:34.258Z,5.78
2022-09-12T10:01:23.176Z,5.20
2022-09-12T10:04:20.600Z,6.30
2022-09-12T10:07:19.838Z,5.35
2022-09-12T10:10:16.631Z,4.85
2022-09-12T10:13:10.239Z,5.47
2022-09-12T10:30:56.145Z,4.93
2022-09-12T10:33:52.762Z,4.80
2022-09-12T10:36:41.876Z,5.05
2022-09-12T10:39:31.353Z,4.50
2022-09-12T10:42:49.881Z,4.82
2022-09-12T10:45:39.077Z,4.72
2022-09-12T10:48:35.690Z,4.90
2022-09-12T10:51:30.570Z,5.30
2022-09-12T10:54:21.122Z,4.70
2022-09-12T10:57:28.161Z,5.05
2022-09-12T11:00:27.578Z,5.13
2022-09-12T11:03:24.856Z,5.13
2022-09-12T11:06:20.836Z,5.07
2022-09-12T11:09:15.830Z,4.57
2022-09-12T11:12:13.648Z,4.50
2022-09-12T11:15:17.573Z,4.97
2022-09-12T11:18:18.787Z,5.15
2022-09-12T11:21:35.634Z,4.65
2022-09-12T11:24:40.885Z,5.28
2022-09-12T11:27:50.018Z,5.22
2022-09-12T11:30:47.084Z,5.53
2022-09-12T11:33:56.557Z,4.75
2022-09-12T11:37:10.594Z,7.65
2022-09-12T11:40:08.797Z,5.45
2022-09-12T11:43:02.220Z,4.97
2022-09-12T11:45:52.526Z,4.90
2022-09-12T11:48:46.590Z,5.10
2022-09-12T11:51:41.005Z,4.55
2022-09-12T11:54:35.249Z,5.18
2022-09-12T11:57:32.187Z,5.25
2022-09-12T12:00:23.425Z,5.25
2022-09-12T12:03:18.186Z,4.57
2022-09-12T12:06:12.640Z,4.82
2022-09-12T12:09:05.617Z,4.57
2022-09-12T12:11:58.814Z,4.60
2022-09-12T12:14:54.575Z,4.80
2022-09-12T12:17:43.701Z,4.90
2022-09-12T12:20:32.689Z,4.70
2022-09-12T12:23:31.804Z,4.90
2022-09-12T12:26:55.570Z,4.57
2022-09-12T12:29:46.408Z,4.88
2022-09-12T12:32:35.353Z,5.43
2022-09-12T12:35:46.385Z,4.90
2022-09-12T12:38:37.092Z,5.20
2022-09-12T12:41:45.475Z,4.70
2022-09-12T12:44:56.510Z,4.53
2022-09-12T12:47:47.442Z,4.47
2022-09-12T12:50:36.348Z,5.43
2022-09-12T12:53:28.147Z,4.72
2022-09-12T12:56:40.609Z,4.68
2022-09-12T12:59:29.658Z,4.72
2022-09-12T13:02:25.118Z,3.70
2022-09-12T13:05:20.854Z,4.13
2022-09-12T13:08:11.405Z,4.00
2022-09-12T13:11:03.303Z,3.60
2022-09-12T13:13:54.799Z,4.10
2022-09-12T13:16:56.895Z,3.67
2022-09-12T13:19:48.311Z,3.90
2022-09-12T13:22:42.697Z,4.20
2022-09-12T13:25:33.605Z,4.13
2022-09-12T13:28:22.321Z,4.13
2022-09-12T13:31:24.283Z,3.50
2022-09-12T13:34:20.071Z,4.30
2022-09-12T13:37:34.734Z,4.15
2022-09-12T13:40:33.135Z,4.50
2022-09-12T13:43:31.925Z,4.03
2022-09-12T13:46:30.239Z,4.47
2022-09-12T13:49:23.998Z,4.18
2022-09-12T13:52:19.830Z,4.00
2022-09-12T13:55:30.357Z,4.03
2022-09-12T13:58:22.766Z,3.78
2022-09-12T14:01:15.143Z,3.58
2022-09-12T14:04:34.253Z,3.67
2022-09-12T14:07:24.751Z,4.13
2022-09-12T14:10:21.568Z,3.80
2022-09-12T14:13:14.475Z,3.80
2022-09-12T14:16:09.999Z,3.95
2022-09-12T14:18:59.920Z,3.65
2022-09-12T14:21:49.922Z,3.60
2022-09-12T14:24:39.529Z,3.50
2022-09-12T14:27:45.897Z,3.55
2022-09-12T14:30:37.383Z,3.97
2022-09-12T14:33:26.067Z,3.95
2022-09-12T14:36:21.643Z,3.90
2022-09-12T14:39:21.919Z,4.63
2022-09-12T14:42:16.625Z,4.80
2022-09-12T14:45:17.958Z,4.38
2022-09-12T14:48:06.590Z,4.07
2022-09-12T14:50:55.533Z,3.60
2022-09-12T14:53:50.297Z,3.85
2022-09-12T14:56:41.636Z,4.40
2022-09-12T14:59:32.305Z,4.85
2022-09-12T15:02:27.461Z,4.50
2022-09-12T15:05:19.192Z,3.50
2022-09-12T15:08:16.675Z,3.80
2022-09-12T15:11:08.212Z,4.47
2022-09-12T15:13:56.899Z,4.50
2022-09-12T15:16:45.586Z,6.90
2022-09-12T15:19:35.482Z,6.07
2022-09-12T15:22:26.334Z,4.40
2022-09-12T15:25:15.509Z,4.20
2022-09-12T15:28:14.512Z,4.22
2022-09-12T15:31:08.372Z,3.97
2022-09-12T15:33:58.278Z,4.30
2022-09-12T15:36:48.167Z,4.20
2022-09-12T15:39:36.720Z,6.60
2022-09-12T15:42:29.817Z,7.93
2022-09-12T15:45:21.027Z,5.05
2022-09-12T15:48:10.334Z,4.80
2022-09-12T15:51:01.607Z,5.05
2022-09-12T15:53:56.337Z,5.03
2022-09-12T15:56:45.068Z,5.68
2022-09-12T15:59:33.584Z,5.70
2022-09-12T16:02:22.241Z,7.85
2022-09-12T16:05:16.117Z,5.07
2022-09-12T16:08:04.958Z,5.07
2022-09-12T16:10:58.392Z,4.85
2022-09-12T16:13:47.275Z,6.05
2022-09-12T16:16:36.030Z,5.50
2022-09-12T16:19:25.001Z,5.07
2022-09-12T16:22:13.686Z,4.85
2022-09-12T16:25:02.417Z,5.30
2022-09-12T16:27:52.552Z,6.00
2022-09-12T16:30:41.952Z,5.70
2022-09-12T16:33:31.424Z,5.35
2022-09-12T16:36:21.890Z,5.65
2022-09-12T16:39:10.675Z,5.80
2022-09-12T16:41:59.304Z,5.97
2022-09-12T16:44:49.572Z,6.47
2022-09-12T16:47:38.087Z,6.43
2022-09-12T16:50:28.260Z,6.18
2022-09-12T16:53:17.190Z,5.78
2022-09-12T16:56:06.382Z,6.20
2022-09-12T16:58:55.476Z,6.13
2022-09-12T17:01:46.426Z,6.30
2022-09-12T17:04:35.195Z,5.65
2022-09-12T17:07:23.976Z,6.30
2022-09-12T17:10:12.505Z,6.53
2022-09-12T17:13:01.434Z,5.70
2022-09-12T17:15:49.987Z,5.63
2022-09-12T17:18:40.039Z,5.68
2022-09-12T17:21:28.793Z,5.55
2022-09-12T17:24:21.099Z,5.60
2022-09-12T17:27:09.721Z,7.82
2022-09-12T17:29:58.466Z,5.88
2022-09-12T17:32:47.356Z,5.88
2022-09-12T17:35:38.548Z,5.30
2022-09-12T17:38:28.378Z,5.28
2022-09-12T17:41:19.436Z,5.90
2022-09-12T17:44:08.606Z,6.10
2022-09-12T17:46:57.511Z,5.95
2022-09-12T17:49:48.273Z,5.72
2022-09-12T17:52:38.786Z,6.18
2022-09-12T17:55:27.898Z,6.05
2022-09-12T17:58:16.803Z,5.82
2022-09-12T18:01:24.606Z,5.72
2022-09-12T18:04:13.682Z,8.90
2022-09-12T18:07:02.818Z,6.30
2022-09-12T18:09:54.624Z,5.68
2022-09-12T18:12:43.434Z,5.05
2022-09-12T18:15:34.774Z,5.35
2022-09-12T18:18:23.300Z,5.50
2022-09-12T18:21:13.092Z,5.32
2022-09-12T18:24:03.177Z,5.30
2022-09-12T18:26:53.471Z,5.53
2022-09-12T18:29:42.538Z,6.03
2022-09-12T18:32:31.092Z,5.40
2022-09-12T18:35:20.422Z,5.47
2022-09-12T18:38:09.433Z,5.75
2022-09-12T18:41:03.869Z,5.47
2022-09-12T18:43:57.689Z,5.40
2022-09-12T18:46:46.465Z,6.05
2022-09-12T18:49:38.942Z,5.72
2022-09-12T18:52:27.985Z,5.78
2022-09-12T18:55:17.139Z,5.60
2022-09-12T18:58:06.515Z,5.18
2022-09-12T19:00:57.863Z,6.80
2022-09-12T19:03:47.078Z,5.32
2022-09-12T19:06:37.504Z,4.82
2022-09-12T19:09:26.271Z,5.07
2022-09-12T19:12:15.384Z,5.43
2022-09-12T19:15:04.124Z,5.45
2022-09-12T19:17:53.994Z,5.90
2022-09-12T19:20:42.732Z,5.65
2022-09-12T19:23:32.495Z,6.47
2022-09-12T19:26:22.262Z,6.40
2022-09-12T19:29:12.169Z,6.50
2022-09-12T19:32:00.720Z,7.90
2022-09-12T19:34:51.155Z,8.40
2022-09-12T19:37:40.029Z,7.90
2022-09-12T19:40:28.723Z,7.75
2022-09-12T19:43:17.553Z,7.40
2022-09-12T19:46:06.648Z,7.35
2022-09-12T19:48:55.574Z,7.03
2022-09-12T19:51:45.499Z,7.45
2022-09-12T19:54:34.449Z,7.50
2022-09-12T19:57:22.991Z,7.47
2022-09-12T20:00:12.831Z,6.97
2022-09-12T20:03:01.696Z,7.78
2022-09-12T20:05:51.062Z,7.10
2022-09-12T20:08:42.555Z,7.43
2022-09-12T20:11:31.508Z,7.43
2022-09-12T20:14:21.330Z,7.88
2022-09-12T20:17:09.916Z,7.43
2022-09-12T20:19:59.224Z,8.15
2022-09-12T20:22:51.758Z,8.25
2022-09-12T20:25:42.193Z,8.30
2022-09-12T20:28:30.918Z,8.07
2022-09-12T20:31:19.963Z,8.40
2022-09-12T20:34:09.642Z,8.85
2022-09-12T20:36:58.304Z,9.18
2022-09-12T20:39:50.701Z,8.80
2022-09-12T20:42:41.031Z,8.57
2022-09-12T20:45:29.555Z,8.77
2022-09-12T20:48:18.188Z,8.88
2022-09-12T20:51:07.779Z,9.50
2022-09-12T20:53:57.066Z,9.15
2022-09-12T20:56:45.514Z,9.10
2022-09-12T20:59:39.412Z,8.73
2022-09-12T21:02:29.914Z,9.63
2022-09-12T21:05:18.557Z,8.60
2022-09-12T21:08:07.556Z,8.35
2022-09-12T21:10:56.073Z,9.48
2022-09-12T21:13:45.029Z,8.95
2022-09-12T21:16:38.624Z,9.25
2022-09-12T21:19:27.073Z,9.73
2022-09-12T21:22:15.614Z,9.55
2022-09-12T21:25:04.271Z,9.85
2022-09-12T21:27:53.001Z,9.80
2022-09-12T21:30:41.507Z,10.00
2022-09-12T21:33:31.920Z,9.50
2022-09-12T21:36:20.745Z,9.25
2022-09-12T21:39:09.382Z,9.27
2022-09-12T21:41:57.853Z,9.98
2022-09-12T21:44:46.388Z,9.75
2022-09-12T21:47:34.926Z,9.90
2022-09-12T21:50:24.851Z,9.98
2022-09-12T21:53:13.434Z,10.27
2022-09-12T21:56:03.186Z,9.82
2022-09-12T21:58:51.671Z,9.60
2022-09-12T22:01:40.216Z,10.00
2022-09-12T22:04:28.811Z,9.40
2022-09-12T22:07:19.235Z,9.98
2022-09-12T22:10:09.006Z,9.70
2022-09-12T22:12:57.488Z,9.70
2022-09-12T22:15:50.896Z,10.30
2022-09-12T22:18:40.024Z,9.50
2022-09-12T22:21:28.478Z,9.93
2022-09-12T22:24:35.141Z,9.95
2022-09-12T22:27:23.699Z,9.85
2022-09-12T22:30:13.390Z,10.02
2022-09-12T22:33:02.163Z,9.80
2022-09-12T22:35:50.974Z,10.38
2022-09-12T22:38:40.580Z,10.63
2022-09-12T22:41:30.452Z,9.90
2022-09-12T22:44:19.085Z,10.60
2022-09-12T22:47:07.642Z,9.85
2022-09-12T22:49:56.200Z,10.30
2022-09-12T22:52:44.971Z,10.35
2022-09-12T22:55:33.482Z,9.13
2022-09-12T22:58:23.591Z,10.73
2022-09-12T23:01:13.330Z,9.60
2022-09-12T23:04:02.220Z,10.27
2022-09-12T23:06:50.748Z,10.57
2022-09-12T23:09:39.378Z,9.90
2022-09-12T23:12:27.879Z,9.95
2022-09-12T23:15:18.260Z,10.27
2022-09-12T23:18:06.860Z,9.40
2022-09-12T23:20:59.769Z,9.95
2022-09-12T23:23:48.792Z,10.18
2022-09-12T23:26:37.358Z,9.65
2022-09-12T23:29:26.107Z,9.10
2022-09-12T23:32:16.057Z,9.80
2022-09-12T23:35:05.439Z,10.85
2022-09-12T23:37:53.942Z,10.43
2022-09-12T23:40:42.502Z,10.13
2022-09-12T23:43:31.811Z,10.63
2022-09-12T23:46:21.507Z,10.52
2022-09-12T23:49:11.432Z,10.20
2022-09-12T23:52:00.024Z,10.73
2022-09-12T23:54:48.600Z,10.00
2022-09-12T23:57:37.210Z,10.50
